sensor_id;sensor_type;location;lat;lon;timestamp;temperature;humidity
60313;DHT22;46158;52.850;6.970;2022-09-23T00:02:03;16.90;83.40
60313;DHT22;46158;52.850;6.970;2022-09-23T00:04:31;16.90;83.30
60313;DHT22;46158;52.850;6.970;2022-09-23T00:06:56;16.90;83.30
60313;DHT22;46158;52.850;6.970;2022-09-23T00:09:22;16.90;83.30
60313;DHT22;46158;52.850;6.970;2022-09-23T00:11:48;16.90;83.30
60313;DHT22;46158;52.850;6.970;2022-09-23T00:14:14;16.90;83.30
60313;DHT22;46158;52.850;6.970;2022-09-23T00:16:39;16.80;83.30
60313;DHT22;46158;52.850;6.970;2022-09-23T00:19:05;16.80;83.20
60313;DHT22;46158;52.850;6.970;2022-09-23T00:21:31;16.80;83.20
60313;DHT22;46158;52.850;6.970;2022-09-23T00:23:57;16.80;83.20
60313;DHT22;46158;52.850;6.970;2022-09-23T00:26:23;16.80;83.20
60313;DHT22;46158;52.850;6.970;2022-09-23T00:28:49;16.80;83.20
60313;DHT22;46158;52.850;6.970;2022-09-23T00:31:17;16.80;83.20
60313;DHT22;46158;52.850;6.970;2022-09-23T00:33:43;16.80;83.20
60313;DHT22;46158;52.850;6.970;2022-09-23T00:36:11;16.80;83.20
60313;DHT22;46158;52.850;6.970;2022-09-23T00:38:40;16.70;83.10
60313;DHT22;46158;52.850;6.970;2022-09-23T00:41:05;16.70;83.10
60313;DHT22;46158;52.850;6.970;2022-09-23T00:43:46;16.70;83.10
60313;DHT22;46158;52.850;6.970;2022-09-23T00:46:18;16.70;83.00
60313;DHT22;46158;52.850;6.970;2022-09-23T00:48:45;16.70;83.10
60313;DHT22;46158;52.850;6.970;2022-09-23T00:51:15;16.70;83.10
60313;DHT22;46158;52.850;6.970;2022-09-23T00:53:44;16.70;83.00
60313;DHT22;46158;52.850;6.970;2022-09-23T00:56:11;16.70;83.00
60313;DHT22;46158;52.850;6.970;2022-09-23T00:58:39;16.70;83.00
60313;DHT22;46158;52.850;6.970;2022-09-23T01:01:06;16.70;83.00
60313;DHT22;46158;52.850;6.970;2022-09-23T01:03:32;16.60;83.00
60313;DHT22;46158;52.850;6.970;2022-09-23T01:05:58;16.60;83.00
60313;DHT22;46158;52.850;6.970;2022-09-23T01:08:24;16.60;83.00
60313;DHT22;46158;52.850;6.970;2022-09-23T01:10:55;16.60;82.90
60313;DHT22;46158;52.850;6.970;2022-09-23T01:19:29;16.60;82.80
60313;DHT22;46158;52.850;6.970;2022-09-23T01:22:19;16.60;82.90
60313;DHT22;46158;52.850;6.970;2022-09-23T01:31:02;16.50;82.80
60313;DHT22;46158;52.850;6.970;2022-09-23T01:33:57;16.50;82.80
60313;DHT22;46158;52.850;6.970;2022-09-23T01:39:42;16.50;82.90
60313;DHT22;46158;52.850;6.970;2022-09-23T01:44:42;16.50;82.90
60313;DHT22;46158;52.850;6.970;2022-09-23T01:47:13;16.50;82.90
60313;DHT22;46158;52.850;6.970;2022-09-23T01:49:56;16.40;82.90
60313;DHT22;46158;52.850;6.970;2022-09-23T01:52:42;16.50;82.80
60313;DHT22;46158;52.850;6.970;2022-09-23T01:55:26;16.40;82.70
60313;DHT22;46158;52.850;6.970;2022-09-23T01:58:13;16.40;82.80
60313;DHT22;46158;52.850;6.970;2022-09-23T02:00:58;16.40;82.80
60313;DHT22;46158;52.850;6.970;2022-09-23T02:03:35;16.40;82.70
60313;DHT22;46158;52.850;6.970;2022-09-23T02:06:08;16.40;82.80
60313;DHT22;46158;52.850;6.970;2022-09-23T02:08:59;16.40;82.80
60313;DHT22;46158;52.850;6.970;2022-09-23T02:11:26;16.40;82.70
60313;DHT22;46158;52.850;6.970;2022-09-23T02:16:42;16.30;82.90
60313;DHT22;46158;52.850;6.970;2022-09-23T02:19:19;16.30;82.80
60313;DHT22;46158;52.850;6.970;2022-09-23T02:21:51;16.30;82.70
60313;DHT22;46158;52.850;6.970;2022-09-23T02:24:31;16.30;82.70
60313;DHT22;46158;52.850;6.970;2022-09-23T02:27:23;16.30;82.70
60313;DHT22;46158;52.850;6.970;2022-09-23T02:30:09;16.30;82.60
60313;DHT22;46158;52.850;6.970;2022-09-23T02:38:36;16.20;82.50
60313;DHT22;46158;52.850;6.970;2022-09-23T02:46:22;16.20;82.50
60313;DHT22;46158;52.850;6.970;2022-09-23T02:48:56;16.20;82.60
60313;DHT22;46158;52.850;6.970;2022-09-23T02:51:26;16.20;82.50
60313;DHT22;46158;52.850;6.970;2022-09-23T02:53:56;16.20;82.60
60313;DHT22;46158;52.850;6.970;2022-09-23T02:56:23;16.20;82.50
60313;DHT22;46158;52.850;6.970;2022-09-23T02:58:50;16.20;82.60
60313;DHT22;46158;52.850;6.970;2022-09-23T03:07:52;16.20;82.50
60313;DHT22;46158;52.850;6.970;2022-09-23T03:10:30;16.10;82.50
60313;DHT22;46158;52.850;6.970;2022-09-23T03:23:46;16.10;82.30
60313;DHT22;46158;52.850;6.970;2022-09-23T03:26:22;16.10;82.50
60313;DHT22;46158;52.850;6.970;2022-09-23T03:28:49;16.00;82.30
60313;DHT22;46158;52.850;6.970;2022-09-23T03:31:16;16.10;82.40
60313;DHT22;46158;52.850;6.970;2022-09-23T03:33:54;16.00;82.40
60313;DHT22;46158;52.850;6.970;2022-09-23T03:36:30;16.00;82.20
60313;DHT22;46158;52.850;6.970;2022-09-23T03:39:45;16.00;82.30
60313;DHT22;46158;52.850;6.970;2022-09-23T03:42:17;16.00;82.30
60313;DHT22;46158;52.850;6.970;2022-09-23T03:44:44;16.00;82.30
60313;DHT22;46158;52.850;6.970;2022-09-23T03:47:12;16.00;83.00
60313;DHT22;46158;52.850;6.970;2022-09-23T03:49:41;16.00;82.30
60313;DHT22;46158;52.850;6.970;2022-09-23T03:52:07;16.00;82.30
60313;DHT22;46158;52.850;6.970;2022-09-23T03:54:33;16.00;82.30
60313;DHT22;46158;52.850;6.970;2022-09-23T03:56:59;16.00;82.30
60313;DHT22;46158;52.850;6.970;2022-09-23T03:59:26;16.00;82.30
60313;DHT22;46158;52.850;6.970;2022-09-23T04:01:52;15.90;82.20
60313;DHT22;46158;52.850;6.970;2022-09-23T04:04:18;15.90;82.20
60313;DHT22;46158;52.850;6.970;2022-09-23T04:06:44;15.90;82.20
60313;DHT22;46158;52.850;6.970;2022-09-23T04:09:10;15.90;82.20
60313;DHT22;46158;52.850;6.970;2022-09-23T04:11:35;15.90;82.20
60313;DHT22;46158;52.850;6.970;2022-09-23T04:14:02;15.90;82.20
60313;DHT22;46158;52.850;6.970;2022-09-23T04:16:27;15.90;82.20
60313;DHT22;46158;52.850;6.970;2022-09-23T04:18:53;15.90;82.20
60313;DHT22;46158;52.850;6.970;2022-09-23T04:21:19;15.90;82.20
60313;DHT22;46158;52.850;6.970;2022-09-23T04:23:45;15.90;82.20
60313;DHT22;46158;52.850;6.970;2022-09-23T04:26:11;15.80;82.20
60313;DHT22;46158;52.850;6.970;2022-09-23T04:28:37;15.80;82.20
60313;DHT22;46158;52.850;6.970;2022-09-23T04:31:07;15.80;82.20
60313;DHT22;46158;52.850;6.970;2022-09-23T04:33:34;15.80;82.10
60313;DHT22;46158;52.850;6.970;2022-09-23T04:36:00;15.80;82.10
60313;DHT22;46158;52.850;6.970;2022-09-23T04:38:26;15.80;82.40
60313;DHT22;46158;52.850;6.970;2022-09-23T04:40:52;15.80;82.10
60313;DHT22;46158;52.850;6.970;2022-09-23T04:43:17;15.80;82.10
60313;DHT22;46158;52.850;6.970;2022-09-23T04:45:43;15.80;82.10
60313;DHT22;46158;52.850;6.970;2022-09-23T04:48:10;15.70;82.10
60313;DHT22;46158;52.850;6.970;2022-09-23T04:50:37;15.70;82.10
60313;DHT22;46158;52.850;6.970;2022-09-23T04:53:03;15.70;82.00
60313;DHT22;46158;52.850;6.970;2022-09-23T04:55:30;15.70;82.00
60313;DHT22;46158;52.850;6.970;2022-09-23T04:57:56;15.70;82.00
60313;DHT22;46158;52.850;6.970;2022-09-23T05:00:22;15.70;82.00
60313;DHT22;46158;52.850;6.970;2022-09-23T05:02:49;15.70;82.10
60313;DHT22;46158;52.850;6.970;2022-09-23T05:05:16;15.70;82.00
60313;DHT22;46158;52.850;6.970;2022-09-23T05:07:46;15.70;82.10
60313;DHT22;46158;52.850;6.970;2022-09-23T05:10:13;15.70;82.10
60313;DHT22;46158;52.850;6.970;2022-09-23T05:12:38;15.70;82.00
60313;DHT22;46158;52.850;6.970;2022-09-23T05:15:04;15.70;82.00
60313;DHT22;46158;52.850;6.970;2022-09-23T05:17:30;15.60;82.00
60313;DHT22;46158;52.850;6.970;2022-09-23T05:19:57;15.60;82.00
60313;DHT22;46158;52.850;6.970;2022-09-23T05:22:24;15.60;82.00
60313;DHT22;46158;52.850;6.970;2022-09-23T05:24:51;15.60;82.00
60313;DHT22;46158;52.850;6.970;2022-09-23T05:27:17;15.60;82.00
60313;DHT22;46158;52.850;6.970;2022-09-23T05:29:43;15.60;82.00
60313;DHT22;46158;52.850;6.970;2022-09-23T05:32:09;15.60;82.00
60313;DHT22;46158;52.850;6.970;2022-09-23T05:34:34;15.60;82.00
60313;DHT22;46158;52.850;6.970;2022-09-23T05:37:00;15.60;82.10
60313;DHT22;46158;52.850;6.970;2022-09-23T05:39:25;15.60;82.10
60313;DHT22;46158;52.850;6.970;2022-09-23T05:41:51;15.50;82.00
60313;DHT22;46158;52.850;6.970;2022-09-23T05:44:18;15.50;82.10
60313;DHT22;46158;52.850;6.970;2022-09-23T05:46:44;15.50;82.00
60313;DHT22;46158;52.850;6.970;2022-09-23T05:49:09;15.50;82.00
60313;DHT22;46158;52.850;6.970;2022-09-23T05:51:35;15.50;82.00
60313;DHT22;46158;52.850;6.970;2022-09-23T05:54:01;15.50;82.00
60313;DHT22;46158;52.850;6.970;2022-09-23T05:56:30;15.50;82.00
60313;DHT22;46158;52.850;6.970;2022-09-23T05:58:57;15.50;82.00
60313;DHT22;46158;52.850;6.970;2022-09-23T06:01:25;15.50;82.00
60313;DHT22;46158;52.850;6.970;2022-09-23T06:03:54;15.50;82.00
60313;DHT22;46158;52.850;6.970;2022-09-23T06:06:55;15.40;82.10
60313;DHT22;46158;52.850;6.970;2022-09-23T06:09:14;15.40;82.10
60313;DHT22;46158;52.850;6.970;2022-09-23T06:11:40;15.40;82.20
60313;DHT22;46158;52.850;6.970;2022-09-23T06:14:06;15.40;82.10
60313;DHT22;46158;52.850;6.970;2022-09-23T06:16:34;15.40;82.10
60313;DHT22;46158;52.850;6.970;2022-09-23T06:19:01;15.40;82.10
60313;DHT22;46158;52.850;6.970;2022-09-23T06:21:31;15.40;82.20
60313;DHT22;46158;52.850;6.970;2022-09-23T06:23:57;15.30;82.10
60313;DHT22;46158;52.850;6.970;2022-09-23T06:26:25;15.30;82.20
60313;DHT22;46158;52.850;6.970;2022-09-23T06:28:51;15.30;82.20
60313;DHT22;46158;52.850;6.970;2022-09-23T06:31:16;15.30;82.20
60313;DHT22;46158;52.850;6.970;2022-09-23T06:33:43;15.30;82.30
60313;DHT22;46158;52.850;6.970;2022-09-23T06:36:11;15.30;82.40
60313;DHT22;46158;52.850;6.970;2022-09-23T06:38:40;15.30;82.50
60313;DHT22;46158;52.850;6.970;2022-09-23T06:41:09;15.30;82.30
60313;DHT22;46158;52.850;6.970;2022-09-23T06:43:35;15.30;82.00
60313;DHT22;46158;52.850;6.970;2022-09-23T06:46:03;15.30;81.80
60313;DHT22;46158;52.850;6.970;2022-09-23T06:48:30;15.30;81.90
60313;DHT22;46158;52.850;6.970;2022-09-23T06:51:00;15.30;82.10
60313;DHT22;46158;52.850;6.970;2022-09-23T06:53:30;15.30;82.20
60313;DHT22;46158;52.850;6.970;2022-09-23T06:56:00;15.20;82.30
60313;DHT22;46158;52.850;6.970;2022-09-23T06:58:27;15.30;82.30
60313;DHT22;46158;52.850;6.970;2022-09-23T07:00:53;15.30;82.90
60313;DHT22;46158;52.850;6.970;2022-09-23T07:03:24;15.30;82.10
60313;DHT22;46158;52.850;6.970;2022-09-23T07:05:53;15.30;82.80
60313;DHT22;46158;52.850;6.970;2022-09-23T07:08:19;15.40;82.00
60313;DHT22;46158;52.850;6.970;2022-09-23T07:10:53;15.30;81.90
60313;DHT22;46158;52.850;6.970;2022-09-23T07:13:19;15.30;81.90
60313;DHT22;46158;52.850;6.970;2022-09-23T07:15:52;15.30;81.90
60313;DHT22;46158;52.850;6.970;2022-09-23T07:18:19;15.30;81.80
60313;DHT22;46158;52.850;6.970;2022-09-23T07:20:48;15.30;81.90
60313;DHT22;46158;52.850;6.970;2022-09-23T07:23:14;15.30;81.90
60313;DHT22;46158;52.850;6.970;2022-09-23T07:25:42;15.30;82.00
60313;DHT22;46158;52.850;6.970;2022-09-23T07:28:08;15.30;82.10
60313;DHT22;46158;52.850;6.970;2022-09-23T07:30:38;15.30;82.10
60313;DHT22;46158;52.850;6.970;2022-09-23T07:33:04;15.30;82.10
60313;DHT22;46158;52.850;6.970;2022-09-23T07:35:30;15.30;82.10
60313;DHT22;46158;52.850;6.970;2022-09-23T07:37:56;15.30;82.10
60313;DHT22;46158;52.850;6.970;2022-09-23T07:40:22;15.30;82.10
60313;DHT22;46158;52.850;6.970;2022-09-23T07:42:48;15.30;82.10
60313;DHT22;46158;52.850;6.970;2022-09-23T07:45:13;15.30;82.10
60313;DHT22;46158;52.850;6.970;2022-09-23T07:47:39;15.30;82.20
60313;DHT22;46158;52.850;6.970;2022-09-23T07:50:07;15.30;82.20
60313;DHT22;46158;52.850;6.970;2022-09-23T07:52:36;15.30;82.30
60313;DHT22;46158;52.850;6.970;2022-09-23T07:55:04;15.30;82.30
60313;DHT22;46158;52.850;6.970;2022-09-23T07:57:30;15.30;82.30
60313;DHT22;46158;52.850;6.970;2022-09-23T07:59:55;15.30;82.30
60313;DHT22;46158;52.850;6.970;2022-09-23T08:02:21;15.40;82.30
60313;DHT22;46158;52.850;6.970;2022-09-23T08:04:48;15.30;82.30
60313;DHT22;46158;52.850;6.970;2022-09-23T08:07:13;15.40;82.40
60313;DHT22;46158;52.850;6.970;2022-09-23T08:09:40;15.30;82.00
60313;DHT22;46158;52.850;6.970;2022-09-23T08:12:08;15.30;82.10
60313;DHT22;46158;52.850;6.970;2022-09-23T08:14:34;15.30;82.10
60313;DHT22;46158;52.850;6.970;2022-09-23T08:16:59;15.30;82.20
60313;DHT22;46158;52.850;6.970;2022-09-23T08:19:25;15.30;82.20
60313;DHT22;46158;52.850;6.970;2022-09-23T08:21:52;15.30;82.20
60313;DHT22;46158;52.850;6.970;2022-09-23T08:24:20;15.30;82.30
60313;DHT22;46158;52.850;6.970;2022-09-23T08:26:47;15.30;82.30
60313;DHT22;46158;52.850;6.970;2022-09-23T08:29:15;15.30;82.40
60313;DHT22;46158;52.850;6.970;2022-09-23T08:31:42;15.40;82.40
60313;DHT22;46158;52.850;6.970;2022-09-23T08:34:08;15.30;82.40
60313;DHT22;46158;52.850;6.970;2022-09-23T08:36:34;15.30;82.40
60313;DHT22;46158;52.850;6.970;2022-09-23T08:39:00;15.30;82.40
60313;DHT22;46158;52.850;6.970;2022-09-23T08:41:39;15.30;82.40
60313;DHT22;46158;52.850;6.970;2022-09-23T08:44:17;15.40;82.40
60313;DHT22;46158;52.850;6.970;2022-09-23T08:46:48;15.40;82.50
60313;DHT22;46158;52.850;6.970;2022-09-23T08:49:25;15.30;82.40
60313;DHT22;46158;52.850;6.970;2022-09-23T08:51:53;15.40;82.50
60313;DHT22;46158;52.850;6.970;2022-09-23T08:54:21;15.40;82.60
60313;DHT22;46158;52.850;6.970;2022-09-23T08:56:49;15.40;82.60
60313;DHT22;46158;52.850;6.970;2022-09-23T08:59:28;15.40;82.60
60313;DHT22;46158;52.850;6.970;2022-09-23T09:02:20;15.40;82.60
60313;DHT22;46158;52.850;6.970;2022-09-23T09:05:04;15.30;82.60
60313;DHT22;46158;52.850;6.970;2022-09-23T09:07:33;15.40;82.70
60313;DHT22;46158;52.850;6.970;2022-09-23T09:12:47;15.40;82.80
60313;DHT22;46158;52.850;6.970;2022-09-23T09:15:25;15.40;82.80
60313;DHT22;46158;52.850;6.970;2022-09-23T09:18:10;15.40;82.80
60313;DHT22;46158;52.850;6.970;2022-09-23T09:20:58;15.40;82.80
60313;DHT22;46158;52.850;6.970;2022-09-23T09:23:44;15.40;82.80
60313;DHT22;46158;52.850;6.970;2022-09-23T09:26:26;15.40;82.80
60313;DHT22;46158;52.850;6.970;2022-09-23T09:29:11;15.40;83.00
60313;DHT22;46158;52.850;6.970;2022-09-23T09:31:46;15.40;82.90
60313;DHT22;46158;52.850;6.970;2022-09-23T09:37:06;15.40;83.00
60313;DHT22;46158;52.850;6.970;2022-09-23T09:39:36;15.40;82.90
60313;DHT22;46158;52.850;6.970;2022-09-23T09:42:04;15.40;82.90
60313;DHT22;46158;52.850;6.970;2022-09-23T09:47:44;15.40;82.80
60313;DHT22;46158;52.850;6.970;2022-09-23T09:50:12;15.40;83.00
60313;DHT22;46158;52.850;6.970;2022-09-23T09:52:45;15.40;83.10
60313;DHT22;46158;52.850;6.970;2022-09-23T09:57:47;15.40;83.40
60313;DHT22;46158;52.850;6.970;2022-09-23T10:02:53;15.40;83.60
60313;DHT22;46158;52.850;6.970;2022-09-23T10:05:52;15.50;83.80
60313;DHT22;46158;52.850;6.970;2022-09-23T10:13:23;15.50;84.40
60313;DHT22;46158;52.850;6.970;2022-09-23T10:15:49;15.60;84.40
60313;DHT22;46158;52.850;6.970;2022-09-23T10:18:30;15.60;84.20
60313;DHT22;46158;52.850;6.970;2022-09-23T10:21:08;15.70;84.20
60313;DHT22;46158;52.850;6.970;2022-09-23T10:23:51;15.70;84.60
60313;DHT22;46158;52.850;6.970;2022-09-23T10:26:29;15.70;84.40
60313;DHT22;46158;52.850;6.970;2022-09-23T10:28:57;15.80;84.50
60313;DHT22;46158;52.850;6.970;2022-09-23T10:31:28;15.80;84.40
60313;DHT22;46158;52.850;6.970;2022-09-23T10:34:02;15.80;84.40
60313;DHT22;46158;52.850;6.970;2022-09-23T10:39:37;15.90;84.60
60313;DHT22;46158;52.850;6.970;2022-09-23T10:42:45;15.90;84.70
60313;DHT22;46158;52.850;6.970;2022-09-23T10:45:35;15.90;84.80
60313;DHT22;46158;52.850;6.970;2022-09-23T10:54:13;16.00;85.40
60313;DHT22;46158;52.850;6.970;2022-09-23T10:56:47;16.00;85.60
60313;DHT22;46158;52.850;6.970;2022-09-23T10:59:39;16.00;85.80
60313;DHT22;46158;52.850;6.970;2022-09-23T11:05:18;16.10;86.00
60313;DHT22;46158;52.850;6.970;2022-09-23T11:11:00;16.10;86.10
60313;DHT22;46158;52.850;6.970;2022-09-23T11:29:19;16.20;86.60
60313;DHT22;46158;52.850;6.970;2022-09-23T11:34:59;16.30;87.40
60313;DHT22;46158;52.850;6.970;2022-09-23T11:37:31;16.40;87.10
60313;DHT22;46158;52.850;6.970;2022-09-23T11:40:05;16.40;87.20
60313;DHT22;46158;52.850;6.970;2022-09-23T11:45:48;16.40;87.20
60313;DHT22;46158;52.850;6.970;2022-09-23T11:48:17;16.50;87.20
60313;DHT22;46158;52.850;6.970;2022-09-23T11:50:49;16.50;87.60
60313;DHT22;46158;52.850;6.970;2022-09-23T11:53:49;16.50;87.60
60313;DHT22;46158;52.850;6.970;2022-09-23T11:56:35;16.50;87.40
60313;DHT22;46158;52.850;6.970;2022-09-23T11:59:32;16.60;87.50
60313;DHT22;46158;52.850;6.970;2022-09-23T12:02:04;16.60;87.70
60313;DHT22;46158;52.850;6.970;2022-09-23T12:04:38;16.50;88.40
60313;DHT22;46158;52.850;6.970;2022-09-23T12:09:57;16.60;87.80
60313;DHT22;46158;52.850;6.970;2022-09-23T12:21:10;16.80;87.90
60313;DHT22;46158;52.850;6.970;2022-09-23T12:26:23;16.80;87.80
60313;DHT22;46158;52.850;6.970;2022-09-23T12:28:52;16.80;87.50
60313;DHT22;46158;52.850;6.970;2022-09-23T12:31:22;16.80;87.50
60313;DHT22;46158;52.850;6.970;2022-09-23T12:33:59;16.90;87.50
60313;DHT22;46158;52.850;6.970;2022-09-23T12:36:29;16.90;87.40
60313;DHT22;46158;52.850;6.970;2022-09-23T12:39:05;16.80;87.30
60313;DHT22;46158;52.850;6.970;2022-09-23T12:41:34;16.90;87.40
60313;DHT22;46158;52.850;6.970;2022-09-23T12:46:43;16.90;87.50
60313;DHT22;46158;52.850;6.970;2022-09-23T13:02:34;17.10;88.00
60313;DHT22;46158;52.850;6.970;2022-09-23T13:07:54;17.10;88.10
60313;DHT22;46158;52.850;6.970;2022-09-23T13:10:53;17.10;88.10
60313;DHT22;46158;52.850;6.970;2022-09-23T13:13:24;17.20;88.30
60313;DHT22;46158;52.850;6.970;2022-09-23T13:15:51;17.10;88.30
60313;DHT22;46158;52.850;6.970;2022-09-23T13:20:46;17.20;88.60
60313;DHT22;46158;52.850;6.970;2022-09-23T13:25:48;17.30;88.80
60313;DHT22;46158;52.850;6.970;2022-09-23T13:28:38;17.30;88.90
60313;DHT22;46158;52.850;6.970;2022-09-23T13:31:13;17.40;88.80
60313;DHT22;46158;52.850;6.970;2022-09-23T13:33:47;17.30;88.80
60313;DHT22;46158;52.850;6.970;2022-09-23T13:36:17;17.40;88.90
60313;DHT22;46158;52.850;6.970;2022-09-23T13:38:43;17.40;89.60
60313;DHT22;46158;52.850;6.970;2022-09-23T13:43:48;17.50;89.00
60313;DHT22;46158;52.850;6.970;2022-09-23T13:46:24;17.50;88.90
60313;DHT22;46158;52.850;6.970;2022-09-23T13:48:52;17.50;88.90
60313;DHT22;46158;52.850;6.970;2022-09-23T13:51:32;17.50;88.90
60313;DHT22;46158;52.850;6.970;2022-09-23T13:54:00;17.60;88.80
60313;DHT22;46158;52.850;6.970;2022-09-23T13:56:28;17.60;88.80
60313;DHT22;46158;52.850;6.970;2022-09-23T13:59:28;17.60;88.80
60313;DHT22;46158;52.850;6.970;2022-09-23T14:02:15;17.60;88.60
60313;DHT22;46158;52.850;6.970;2022-09-23T14:04:44;17.60;88.50
60313;DHT22;46158;52.850;6.970;2022-09-23T14:07:13;17.60;88.20
60313;DHT22;46158;52.850;6.970;2022-09-23T14:09:45;17.60;87.90
60313;DHT22;46158;52.850;6.970;2022-09-23T14:12:12;17.50;87.70
60313;DHT22;46158;52.850;6.970;2022-09-23T14:14:40;17.50;87.70
60313;DHT22;46158;52.850;6.970;2022-09-23T14:17:07;17.50;87.60
60313;DHT22;46158;52.850;6.970;2022-09-23T14:19:34;17.50;87.60
60313;DHT22;46158;52.850;6.970;2022-09-23T14:22:01;17.50;87.60
60313;DHT22;46158;52.850;6.970;2022-09-23T14:24:34;17.40;88.00
60313;DHT22;46158;52.850;6.970;2022-09-23T14:29:37;17.40;87.60
60313;DHT22;46158;52.850;6.970;2022-09-23T14:40:02;17.30;87.80
60313;DHT22;46158;52.850;6.970;2022-09-23T14:42:30;17.30;87.40
60313;DHT22;46158;52.850;6.970;2022-09-23T14:45:02;17.40;87.50
60313;DHT22;46158;52.850;6.970;2022-09-23T14:47:30;17.40;87.30
60313;DHT22;46158;52.850;6.970;2022-09-23T14:49:57;17.40;87.20
60313;DHT22;46158;52.850;6.970;2022-09-23T14:52:49;17.40;87.20
60313;DHT22;46158;52.850;6.970;2022-09-23T14:55:15;17.40;87.00
60313;DHT22;46158;52.850;6.970;2022-09-23T14:57:42;17.40;87.00
60313;DHT22;46158;52.850;6.970;2022-09-23T15:00:18;17.40;87.00
60313;DHT22;46158;52.850;6.970;2022-09-23T15:02:59;17.40;86.90
60313;DHT22;46158;52.850;6.970;2022-09-23T15:06:02;17.40;86.80
60313;DHT22;46158;52.850;6.970;2022-09-23T15:08:28;17.40;86.80
60313;DHT22;46158;52.850;6.970;2022-09-23T15:10:57;17.40;86.80
60313;DHT22;46158;52.850;6.970;2022-09-23T15:13:29;17.40;86.80
60313;DHT22;46158;52.850;6.970;2022-09-23T15:15:56;17.40;87.40
60313;DHT22;46158;52.850;6.970;2022-09-23T15:18:27;17.40;86.70
60313;DHT22;46158;52.850;6.970;2022-09-23T15:20:58;17.40;86.60
60313;DHT22;46158;52.850;6.970;2022-09-23T15:26:24;17.50;86.50
60313;DHT22;46158;52.850;6.970;2022-09-23T15:28:51;17.50;86.40
60313;DHT22;46158;52.850;6.970;2022-09-23T15:31:20;17.50;86.50
60313;DHT22;46158;52.850;6.970;2022-09-23T15:33:47;17.40;86.30
60313;DHT22;46158;52.850;6.970;2022-09-23T15:36:17;17.50;86.40
60313;DHT22;46158;52.850;6.970;2022-09-23T15:38:44;17.50;86.30
60313;DHT22;46158;52.850;6.970;2022-09-23T15:41:11;17.50;86.20
60313;DHT22;46158;52.850;6.970;2022-09-23T15:43:39;17.50;86.10
60313;DHT22;46158;52.850;6.970;2022-09-23T15:46:34;17.50;86.10
60313;DHT22;46158;52.850;6.970;2022-09-23T15:49:13;17.50;86.00
60313;DHT22;46158;52.850;6.970;2022-09-23T15:51:40;17.50;86.70
60313;DHT22;46158;52.850;6.970;2022-09-23T15:54:13;17.50;86.00
60313;DHT22;46158;52.850;6.970;2022-09-23T15:56:38;17.50;85.90
60313;DHT22;46158;52.850;6.970;2022-09-23T15:59:04;17.50;85.80
60313;DHT22;46158;52.850;6.970;2022-09-23T16:01:32;17.50;85.80
60313;DHT22;46158;52.850;6.970;2022-09-23T16:03:58;17.50;85.80
60313;DHT22;46158;52.850;6.970;2022-09-23T16:06:31;17.50;85.70
60313;DHT22;46158;52.850;6.970;2022-09-23T16:08:57;17.50;85.80
60313;DHT22;46158;52.850;6.970;2022-09-23T16:11:26;17.50;85.80
60313;DHT22;46158;52.850;6.970;2022-09-23T16:13:54;17.50;85.70
60313;DHT22;46158;52.850;6.970;2022-09-23T16:16:20;17.50;85.50
60313;DHT22;46158;52.850;6.970;2022-09-23T16:18:46;17.50;85.40
60313;DHT22;46158;52.850;6.970;2022-09-23T16:21:14;17.50;85.40
60313;DHT22;46158;52.850;6.970;2022-09-23T16:23:42;17.50;85.30
60313;DHT22;46158;52.850;6.970;2022-09-23T16:26:21;17.60;85.30
60313;DHT22;46158;52.850;6.970;2022-09-23T16:28:50;17.60;85.30
60313;DHT22;46158;52.850;6.970;2022-09-23T16:31:17;17.50;85.20
60313;DHT22;46158;52.850;6.970;2022-09-23T16:33:47;17.50;85.10
60313;DHT22;46158;52.850;6.970;2022-09-23T16:38:48;17.60;85.00
60313;DHT22;46158;52.850;6.970;2022-09-23T16:41:14;17.60;85.00
60313;DHT22;46158;52.850;6.970;2022-09-23T16:43:40;17.60;84.90
60313;DHT22;46158;52.850;6.970;2022-09-23T16:46:07;17.60;84.90
60313;DHT22;46158;52.850;6.970;2022-09-23T16:48:36;17.50;84.80
60313;DHT22;46158;52.850;6.970;2022-09-23T16:51:15;17.60;84.80
60313;DHT22;46158;52.850;6.970;2022-09-23T16:53:43;17.60;84.70
60313;DHT22;46158;52.850;6.970;2022-09-23T16:56:10;17.60;84.70
60313;DHT22;46158;52.850;6.970;2022-09-23T16:58:38;17.60;84.70
60313;DHT22;46158;52.850;6.970;2022-09-23T17:01:06;17.60;84.70
60313;DHT22;46158;52.850;6.970;2022-09-23T17:03:51;17.60;84.70
60313;DHT22;46158;52.850;6.970;2022-09-23T17:06:17;17.60;84.70
60313;DHT22;46158;52.850;6.970;2022-09-23T17:08:48;17.60;84.70
60313;DHT22;46158;52.850;6.970;2022-09-23T17:11:16;17.60;84.70
60313;DHT22;46158;52.850;6.970;2022-09-23T17:13:42;17.60;84.70
60313;DHT22;46158;52.850;6.970;2022-09-23T17:16:25;17.60;84.60
60313;DHT22;46158;52.850;6.970;2022-09-23T17:18:52;17.60;85.30
60313;DHT22;46158;52.850;6.970;2022-09-23T17:21:21;17.60;84.70
60313;DHT22;46158;52.850;6.970;2022-09-23T17:23:54;17.60;84.70
60313;DHT22;46158;52.850;6.970;2022-09-23T17:26:21;17.60;84.60
60313;DHT22;46158;52.850;6.970;2022-09-23T17:28:48;17.60;84.60
60313;DHT22;46158;52.850;6.970;2022-09-23T17:31:16;17.60;84.60
60313;DHT22;46158;52.850;6.970;2022-09-23T17:33:42;17.60;84.70
60313;DHT22;46158;52.850;6.970;2022-09-23T17:36:10;17.60;84.60
60313;DHT22;46158;52.850;6.970;2022-09-23T17:38:36;17.60;84.60
60313;DHT22;46158;52.850;6.970;2022-09-23T17:41:04;17.60;84.60
60313;DHT22;46158;52.850;6.970;2022-09-23T17:43:30;17.60;84.60
60313;DHT22;46158;52.850;6.970;2022-09-23T17:46:09;17.70;84.60
60313;DHT22;46158;52.850;6.970;2022-09-23T17:48:36;17.70;84.50
60313;DHT22;46158;52.850;6.970;2022-09-23T17:51:05;17.70;84.60
60313;DHT22;46158;52.850;6.970;2022-09-23T17:53:36;17.70;84.50
60313;DHT22;46158;52.850;6.970;2022-09-23T17:58:32;17.70;84.40
60313;DHT22;46158;52.850;6.970;2022-09-23T18:00:58;17.70;84.40
60313;DHT22;46158;52.850;6.970;2022-09-23T18:03:25;17.70;84.40
60313;DHT22;46158;52.850;6.970;2022-09-23T18:05:52;17.70;84.30
60313;DHT22;46158;52.850;6.970;2022-09-23T18:08:18;17.70;84.30
60313;DHT22;46158;52.850;6.970;2022-09-23T18:10:43;17.70;84.30
60313;DHT22;46158;52.850;6.970;2022-09-23T18:13:09;17.70;84.20
60313;DHT22;46158;52.850;6.970;2022-09-23T18:15:36;17.70;84.20
60313;DHT22;46158;52.850;6.970;2022-09-23T18:18:03;17.70;84.20
60313;DHT22;46158;52.850;6.970;2022-09-23T18:20:29;17.80;84.30
60313;DHT22;46158;52.850;6.970;2022-09-23T18:22:55;17.70;84.20
60313;DHT22;46158;52.850;6.970;2022-09-23T18:25:21;17.80;84.20
60313;DHT22;46158;52.850;6.970;2022-09-23T18:27:47;17.80;84.20
60313;DHT22;46158;52.850;6.970;2022-09-23T18:30:12;17.80;84.20
60313;DHT22;46158;52.850;6.970;2022-09-23T18:32:38;17.80;84.20
60313;DHT22;46158;52.850;6.970;2022-09-23T18:35:05;17.80;84.20
60313;DHT22;46158;52.850;6.970;2022-09-23T18:37:30;17.80;84.20